createdAt,value
2023-04-06T00:00:00.000Z,1.08
2023-04-06T00:15:00.000Z,0.7
2023-04-06T00:30:00.000Z,0.56
2023-04-06T00:45:00.000Z,0.74
2023-04-06T01:00:00.000Z,0.68
2023-04-06T01:15:00.000Z,0.47
2023-04-06T01:30:00.000Z,0.28
2023-04-06T01:45:00.000Z,0.11
2023-04-06T02:00:00.000Z,0.03
2023-04-06T02:15:00.000Z,-0.2
2023-04-06T02:30:00.000Z,-0.12
2023-04-06T02:45:00.000Z,-0.21
2023-04-06T03:00:00.000Z,-0.19
2023-04-06T03:15:00.000Z,-0.47
2023-04-06T03:30:00.000Z,-0.53
2023-04-06T03:45:00.000Z,-0.48
2023-04-06T04:00:00.000Z,-0.46
2023-04-06T04:15:00.000Z,-0.51
2023-04-06T04:30:00.000Z,-0.58
2023-04-06T04:45:00.000Z,-0.66
2023-04-06T05:00:00.000Z,-0.39
2023-04-06T05:15:00.000Z,0.52
2023-04-06T05:30:00.000Z,1.83
2023-04-06T05:45:00.000Z,2.9
2023-04-06T06:00:00.000Z,3.97
2023-04-06T06:15:00.000Z,5.57
2023-04-06T06:30:00.000Z,6.57
2023-04-06T06:45:00.000Z,8.13
2023-04-06T07:00:00.000Z,9.2
2023-04-06T07:15:00.000Z,11.39
2023-04-06T07:30:00.000Z,12.49
2023-04-06T07:45:00.000Z,13.82
2023-04-06T08:00:00.000Z,14.33
2023-04-06T08:15:00.000Z,14.03
2023-04-06T08:30:00.000Z,15.07
2023-04-06T08:45:00.000Z,15.22
2023-04-06T09:00:00.000Z,15.75
2023-04-06T09:15:00.000Z,16.33
2023-04-06T09:30:00.000Z,15.55
2023-04-06T09:45:00.000Z,15.14
2023-04-06T10:00:00.000Z,15.16
2023-04-06T10:15:00.000Z,15.33
2023-04-06T10:30:00.000Z,15.23
2023-04-06T10:45:00.000Z,15.09
2023-04-06T11:00:00.000Z,14.13
2023-04-06T11:15:00.000Z,14.1
2023-04-06T11:30:00.000Z,14.13
2023-04-06T11:45:00.000Z,14.07
2023-04-06T12:00:00.000Z,14.24
2023-04-06T12:15:00.000Z,13.62
2023-04-06T12:30:00.000Z,12.93
2023-04-06T12:45:00.000Z,13.5
2023-04-06T13:00:00.000Z,13.43
2023-04-06T13:15:00.000Z,13.19
2023-04-06T13:30:00.000Z,12.57
2023-04-06T13:45:00.000Z,12.88
2023-04-06T14:00:00.000Z,13.11
2023-04-06T14:15:00.000Z,12.96
2023-04-06T14:30:00.000Z,12.83
2023-04-06T14:45:00.000Z,12.5
2023-04-06T15:00:00.000Z,12.18
2023-04-06T15:15:00.000Z,12.33
2023-04-06T15:30:00.000Z,12.17
2023-04-06T15:45:00.000Z,12.16
2023-04-06T16:00:00.000Z,12.12
2023-04-06T16:30:00.000Z,11.53
2023-04-06T16:45:00.000Z,11.32
2023-04-06T17:00:00.000Z,10.81
2023-04-06T17:15:00.000Z,10.53
2023-04-06T17:30:00.000Z,10.16
2023-04-06T17:45:00.000Z,9.86
2023-04-06T18:00:00.000Z,9.48
2023-04-06T18:15:00.000Z,9.09
2023-04-06T18:30:00.000Z,8.57
2023-04-06T18:45:00.000Z,8.02
2023-04-06T19:00:00.000Z,7.83
2023-04-06T19:15:00.000Z,7.13
2023-04-06T19:30:00.000Z,6.73
2023-04-06T19:45:00.000Z,6.39
2023-04-06T20:00:00.000Z,5.96
2023-04-06T20:15:00.000Z,6.01
2023-04-06T20:30:00.000Z,5.93
2023-04-06T20:45:00.000Z,5.85
2023-04-06T21:00:00.000Z,5.65
2023-04-06T21:15:00.000Z,5.33
2023-04-06T21:30:00.000Z,5.09
2023-04-06T21:45:00.000Z,4.87
2023-04-06T22:00:00.000Z,4.58
2023-04-06T22:15:00.000Z,4.31
2023-04-06T22:30:00.000Z,4.07
2023-04-06T22:45:00.000Z,3.69
2023-04-06T23:00:00.000Z,3.51
2023-04-06T23:15:00.000Z,3.44
2023-04-06T23:30:00.000Z,3.43
2023-04-06T23:45:00.000Z,3.47
